Map

Track Data

SID SEASON NUMBER BASIN SUBBASIN NAME ISO_TIME NATURE LAT LON WMO_WIND WMO_PRES WMO_AGENCY TRACK_TYPE DIST2LAND LANDFALL IFLAG USA_AGENCY USA_ATCF_ID USA_LAT USA_LON USA_RECORD USA_STATUS USA_WIND USA_PRES USA_SSHS USA_R34_NE USA_R34_SE USA_R34_SW USA_R34_NW USA_R50_NE USA_R50_SE USA_R50_SW USA_R50_NW USA_R64_NE USA_R64_SE USA_R64_SW USA_R64_NW USA_POCI USA_ROCI USA_RMW USA_EYE TOKYO_LAT TOKYO_LON TOKYO_GRADE TOKYO_WIND TOKYO_PRES TOKYO_R50_DIR TOKYO_R50_LONG TOKYO_R50_SHORT TOKYO_R30_DIR TOKYO_R30_LONG TOKYO_R30_SHORT TOKYO_LAND CMA_LAT CMA_LON CMA_CAT CMA_WIND CMA_PRES HKO_LAT HKO_LON HKO_CAT HKO_WIND HKO_PRES NEWDELHI_LAT NEWDELHI_LON NEWDELHI_GRADE NEWDELHI_WIND NEWDELHI_PRES NEWDELHI_CI NEWDELHI_DP NEWDELHI_POCI REUNION_LAT REUNION_LON REUNION_TYPE REUNION_WIND REUNION_PRES REUNION_TNUM REUNION_CI REUNION_RMW REUNION_R34_NE REUNION_R34_SE REUNION_R34_SW REUNION_R34_NW REUNION_R50_NE REUNION_R50_SE REUNION_R50_SW REUNION_R50_NW REUNION_R64_NE REUNION_R64_SE REUNION_R64_SW REUNION_R64_NW BOM_LAT BOM_LON BOM_TYPE BOM_WIND BOM_PRES BOM_TNUM BOM_CI BOM_RMW BOM_R34_NE BOM_R34_SE BOM_R34_SW BOM_R34_NW BOM_R50_NE BOM_R50_SE BOM_R50_SW BOM_R50_NW BOM_R64_NE BOM_R64_SE BOM_R64_SW BOM_R64_NW BOM_ROCI BOM_POCI BOM_EYE BOM_POS_METHOD BOM_PRES_METHOD NADI_LAT NADI_LON NADI_CAT NADI_WIND NADI_PRES WELLINGTON_LAT WELLINGTON_LON WELLINGTON_WIND WELLINGTON_PRES DS824_LAT DS824_LON DS824_STAGE DS824_WIND DS824_PRES TD9636_LAT TD9636_LON TD9636_STAGE TD9636_WIND TD9636_PRES TD9635_LAT TD9635_LON TD9635_WIND TD9635_PRES TD9635_ROCI NEUMANN_LAT NEUMANN_LON NEUMANN_CLASS NEUMANN_WIND NEUMANN_PRES MLC_LAT MLC_LON MLC_CLASS MLC_WIND MLC_PRES USA_GUST BOM_GUST BOM_GUST_PER REUNION_GUST REUNION_GUST_PER USA_SEAHGT USA_SEARAD_NE USA_SEARAD_SE USA_SEARAD_SW USA_SEARAD_NW STORM_SPEED STORM_DIR
1922046S14062 1922 17 SI MM NOT_NAMED 1922-02-14 18:00:00 NR -14.4000 62.4000 main 809 730 __________O___ -1 -14.4000 62.4000 7 16 209
1922046S14062 1922 17 SI MM NOT_NAMED 1922-02-14 21:00:00 NR -15.0773 62.0184 main 721 649 __________P___ -1 -15.0773 62.0184 7 15 208
1922046S14062 1922 17 SI MM NOT_NAMED 1922-02-15 00:00:00 NR -15.7334 61.6682 main 649 577 __________P___ -1 -15.7334 61.6682 7 14 206
1922046S14062 1922 17 SI MM NOT_NAMED 1922-02-15 03:00:00 NR -16.3478 61.3838 main 577 514 __________P___ -1 -16.3478 61.3838 7 13 201
1922046S14062 1922 17 SI MM NOT_NAMED 1922-02-15 06:00:00 NR -16.9000 61.2000 main 514 468 __________O___ -1 -16.9000 61.2000 7 11 193
1922046S14062 1922 17 SI MM NOT_NAMED 1922-02-15 09:00:00 NR -17.3765 61.1400 main 468 449 __________P___ -1 -17.3765 61.1400 7 9 182
1922046S14062 1922 17 SI MM NOT_NAMED 1922-02-15 12:00:00 NR -17.7896 61.1785 main 449 430 __________P___ -1 -17.7896 61.1785 7 8 170
1922046S14062 1922 17 SI MM NOT_NAMED 1922-02-15 15:00:00 NR -18.1579 61.2779 main 433 427 __________P___ -1 -18.1579 61.2779 7 7 164
1922046S14062 1922 17 SI MM NOT_NAMED 1922-02-15 18:00:00 NR -18.5000 61.4000 main 427 412 __________O___ -1 -18.5000 61.4000 7 7 166
1922046S14062 1922 17 SI MM NOT_NAMED 1922-02-15 21:00:00 NR -18.8505 61.4616 main 417 406 __________P___ -1 -18.8505 61.4616 7 7 169
1922046S14062 1922 17 SI MM NOT_NAMED 1922-02-16 00:00:00 NR -19.1798 61.5405 main 406 406 __________P___ -1 -19.1798 61.5405 7 7 165
1922046S14062 1922 17 SI MM NOT_NAMED 1922-02-16 03:00:00 NR -19.4942 61.6492 main 407 407 __________P___ -1 -19.4942 61.6492 7 7 158
1922046S14062 1922 17 SI MM NOT_NAMED 1922-02-16 06:00:00 NR -19.8000 61.8000 main 421 420 __________O___ -1 -19.8000 61.8000 7 7 151
1922046S14062 1922 17 SI MM NOT_NAMED 1922-02-16 09:00:00 NR -20.1073 62.0028 main 438 438 __________P___ -1 -20.1073 62.0028 7 7 145
1922046S14062 1922 17 SI MM NOT_NAMED 1922-02-16 12:00:00 NR -20.4076 62.2475 main 458 458 __________P___ -1 -20.4076 62.2475 7 8 141
1922046S14062 1922 17 SI MM NOT_NAMED 1922-02-16 15:00:00 NR -20.7041 62.5185 main 491 491 __________P___ -1 -20.7041 62.5185 7 8 139
1922046S14062 1922 17 SI MM NOT_NAMED 1922-02-16 18:00:00 NR -21.0000 62.8000 main 526 526 __________O___ -1 -21.0000 62.8000 7 7 140
1922046S14062 1922 17 SI MM NOT_NAMED 1922-02-16 21:00:00 NR -21.2750 63.0286 main 551 551 __________P___ -1 -21.2750 63.0286 7 7 142
1922046S14062 1922 17 SI MM NOT_NAMED 1922-02-17 00:00:00 NR -21.5540 63.2698 main 589 589 __________P___ -1 -21.5540 63.2698 7 8 140
1922046S14062 1922 17 SI MM NOT_NAMED 1922-02-17 03:00:00 NR -21.8560 63.5510 main 627 627 __________P___ -1 -21.8560 63.5510 7 9 138
1922046S14062 1922 17 SI MM NOT_NAMED 1922-02-17 06:00:00 NR -22.2000 63.9000 main 666 666 __________O___ -1 -22.2000 63.9000 7 10 136
1922046S14062 1922 17 SI MM NOT_NAMED 1922-02-17 09:00:00 NR -22.6067 64.3289 main 719 719 __________P___ -1 -22.6067 64.3289 7 12 135
1922046S14062 1922 17 SI MM NOT_NAMED 1922-02-17 12:00:00 NR -23.0546 64.8305 main 787 787 __________P___ -1 -23.0546 64.8305 7 13 133
1922046S14062 1922 17 SI MM NOT_NAMED 1922-02-17 15:00:00 NR -23.5252 65.3919 main 861 861 __________P___ -1 -23.5252 65.3919 7 14 131
1922046S14062 1922 17 SI MM NOT_NAMED 1922-02-17 18:00:00 NR -24.0000 66.0000 main 939 939 __________O___ -1 -24.0000 66.0000 7 14 130
1922046S14062 1922 17 SI MM NOT_NAMED 1922-02-17 21:00:00 NR -24.4489 66.6011 main 1012 1012 __________P___ -1 -24.4489 66.6011 7 15 128
1922046S14062 1922 17 SI MM NOT_NAMED 1922-02-18 00:00:00 NR -24.8982 67.2477 main 1090 1090 __________P___ -1 -24.8982 67.2477 7 15 126
1922046S14062 1922 17 SI MM NOT_NAMED 1922-02-18 03:00:00 NR -25.3484 67.9454 main 1173 1173 __________P___ -1 -25.3484 67.9454 7 16 124
1922046S14062 1922 17 SI MM NOT_NAMED 1922-02-18 06:00:00 NR -25.8000 68.7000 main 1269 1269 __________O___ -1 -25.8000 68.7000 7 17 122
1922046S14062 1922 17 SI MM NOT_NAMED 1922-02-18 09:00:00 NR -26.2588 69.5338 main 1366 1366 __________P___ -1 -26.2588 69.5338 7 18 121
1922046S14062 1922 17 SI MM NOT_NAMED 1922-02-18 12:00:00 NR -26.7160 70.4200 main 1466 1466 __________P___ -1 -26.7160 70.4200 7 18 120
1922046S14062 1922 17 SI MM NOT_NAMED 1922-02-18 15:00:00 NR -27.1649 71.3215 main 1570 1570 __________P___ -1 -27.1649 71.3215 7 18 119
1922046S14062 1922 17 SI MM NOT_NAMED 1922-02-18 18:00:00 NR -27.6000 72.2000 main 1669 1669 __________O___ -1 -27.6000 72.2000 7 17 119
1922046S14062 1922 17 SI MM NOT_NAMED 1922-02-18 21:00:00 NR -28.0178 73.0260 main 1760 1760 __________P___ -1 -28.0178 73.0260 7 16 120
1922046S14062 1922 17 SI MM NOT_NAMED 1922-02-19 00:00:00 NR -28.4213 73.8069 main 1849 1849 __________P___ -1 -28.4213 73.8069 7 16 121
1922046S14062 1922 17 SI MM NOT_NAMED 1922-02-19 03:00:00 NR -28.8142 74.5593 main 1939 1939 __________P___ -1 -28.8142 74.5593 7 15 121
1922046S14062 1922 17 SI MM NOT_NAMED 1922-02-19 06:00:00 NR -29.2000 75.3000 main 2019 __________O___ -1 -29.2000 75.3000 7 15 121

About IBTrACS Database

This database is a web-friendly format of International Best Track Archive for Climate Stewardship (IBTrACS), a global best track data archive curated by NOAA dating back to 1842.

Updated: 2021-12-03